Pittsford Mills, Vermont
Current Conditions -  °F | °C
As of 1:35 AM on Monday 24 Nov 2014 (Local Time) from KRUT Reporting Station
Clear Clear  
Wind Chill: 40°   Ceiling: Unl
Heat Index: 46°   Visibility: 10mi
Dew Point: 32°   Wind: 14mph
Humidity: 57%   Direction: 110°ESE
Pressure: 29.93"   Gusts: 20mph
Location:  43.7419°N, 73.0064°W
Report Text: KRUT 240635Z 11012G17KT 10SM CLR 08/00 A2993 RMK AO1
Loading
Personal Weather Stations






























Interactive Weather Map New forecast layout! Learn more

10-Day Weather Forecast

Advertisements
Track Severe Weather on mobile